createdAt,value
2023-02-27T00:01:50.273Z,0.35
2023-02-27T00:04:17.603Z,0.30
2023-02-27T00:06:44.720Z,0.20
2023-02-27T00:09:11.729Z,0.30
2023-02-27T00:11:38.994Z,0.20
2023-02-27T00:14:06.101Z,0.20
2023-02-27T00:16:33.658Z,0.20
2023-02-27T00:19:02.431Z,0.28
2023-02-27T00:21:29.413Z,0.20
2023-02-27T00:23:56.538Z,0.30
2023-02-27T00:26:24.153Z,0.70
2023-02-27T00:28:51.194Z,0.63
2023-02-27T00:31:18.335Z,0.28
2023-02-27T00:33:45.383Z,0.60
2023-02-27T00:36:12.542Z,0.50
2023-02-27T00:38:39.599Z,0.32
2023-02-27T00:41:06.597Z,0.50
2023-02-27T00:43:33.663Z,0.50
2023-02-27T00:46:00.644Z,0.50
2023-02-27T00:48:28.768Z,0.60
2023-02-27T00:50:55.874Z,0.40
2023-02-27T00:53:23.378Z,0.30
2023-02-27T00:55:50.794Z,0.28
2023-02-27T00:58:17.880Z,0.30
2023-02-27T01:00:45.366Z,0.40
2023-02-27T01:03:12.892Z,0.70
2023-02-27T01:05:40.383Z,0.40
2023-02-27T01:08:07.714Z,0.20
2023-02-27T01:10:37.052Z,0.30
2023-02-27T01:13:07.357Z,0.40
2023-02-27T01:15:34.439Z,0.20
2023-02-27T01:18:01.451Z,0.20
2023-02-27T01:20:28.793Z,0.30
2023-02-27T01:22:55.850Z,0.40
2023-02-27T01:25:22.937Z,0.20
2023-02-27T01:27:50.288Z,0.25
2023-02-27T01:30:17.497Z,0.40
2023-02-27T01:32:45.339Z,0.20
2023-02-27T01:35:13.202Z,0.20
2023-02-27T01:37:40.347Z,0.50
2023-02-27T01:40:09.007Z,0.20
2023-02-27T01:42:36.474Z,0.20
2023-02-27T01:45:11.221Z,0.38
2023-02-27T01:48:13.022Z,0.40
2023-02-27T01:50:51.130Z,0.28
2023-02-27T01:53:20.309Z,0.22
2023-02-27T01:55:49.110Z,0.20
2023-02-27T01:58:17.213Z,0.20
2023-02-27T02:00:45.445Z,0.13
2023-02-27T02:03:23.091Z,0.10
2023-02-27T02:05:56.402Z,0.20
2023-02-27T02:08:27.139Z,0.30
2023-02-27T02:10:57.391Z,0.20
2023-02-27T02:13:25.393Z,0.30
2023-02-27T02:16:09.898Z,0.20
2023-02-27T02:21:51.503Z,0.20
2023-02-27T02:25:00.469Z,0.10
2023-02-27T02:28:23.639Z,0.10
2023-02-27T02:31:34.389Z,0.47
2023-02-27T02:34:45.310Z,0.10
2023-02-27T02:37:18.074Z,0.35
2023-02-27T02:40:24.563Z,0.03
2023-02-27T02:43:15.569Z,0.20
2023-02-27T02:45:51.787Z,0.10
2023-02-27T02:48:33.528Z,0.10
2023-02-27T02:51:20.719Z,0.10
2023-02-27T02:54:24.712Z,0.10
2023-02-27T02:57:02.658Z,0.10
2023-02-27T02:59:38.151Z,0.10
2023-02-27T03:02:11.730Z,0.10
2023-02-27T03:04:49.848Z,0.00
2023-02-27T03:07:44.547Z,0.10
2023-02-27T03:10:26.291Z,0.10
2023-02-27T03:13:02.395Z,0.10
2023-02-27T03:15:42.659Z,0.10
2023-02-27T03:18:24.782Z,0.10
2023-02-27T03:21:08.590Z,0.03
2023-02-27T03:23:46.513Z,0.10
2023-02-27T03:26:24.945Z,0.00
2023-02-27T03:29:08.420Z,0.00
2023-02-27T03:31:51.752Z,0.95
2023-02-27T03:34:36.900Z,0.00
2023-02-27T03:37:25.730Z,0.57
2023-02-27T03:40:06.709Z,0.10
2023-02-27T03:42:50.334Z,0.50
2023-02-27T03:45:45.735Z,0.65
2023-02-27T03:48:14.241Z,0.10
2023-02-27T03:50:41.678Z,0.10
2023-02-27T03:53:21.869Z,0.10
2023-02-27T03:55:51.344Z,0.10
2023-02-27T03:58:18.563Z,0.10
2023-02-27T04:00:45.556Z,0.10
2023-02-27T04:03:13.429Z,0.10
2023-02-27T04:05:41.333Z,0.00
2023-02-27T04:08:39.845Z,0.10
2023-02-27T04:11:37.406Z,0.10
2023-02-27T04:14:15.157Z,0.10
2023-02-27T04:17:16.589Z,0.10
2023-02-27T04:20:08.073Z,0.10
2023-02-27T04:22:44.450Z,0.10
2023-02-27T04:25:11.645Z,0.10
2023-02-27T04:27:45.627Z,0.20
2023-02-27T04:30:55.902Z,0.20
2023-02-27T04:33:45.583Z,0.10
2023-02-27T04:36:42.435Z,0.10
2023-02-27T04:39:22.079Z,0.20
2023-02-27T04:42:15.631Z,0.20
2023-02-27T04:44:45.008Z,0.20
2023-02-27T04:47:16.182Z,0.10
2023-02-27T04:49:55.365Z,0.30
2023-02-27T04:52:32.177Z,0.30
2023-02-27T04:55:08.470Z,0.30
2023-02-27T04:57:42.063Z,0.30
2023-02-27T05:00:14.069Z,0.20
2023-02-27T05:02:59.437Z,0.50
2023-02-27T05:05:31.391Z,0.22
2023-02-27T05:08:10.441Z,0.20
2023-02-27T05:10:47.192Z,0.28
2023-02-27T05:13:29.737Z,0.20
2023-02-27T05:16:12.604Z,0.20
2023-02-27T05:18:39.749Z,0.15
2023-02-27T05:21:29.973Z,0.20
2023-02-27T05:23:59.947Z,0.25
2023-02-27T05:26:51.016Z,0.20
2023-02-27T05:29:32.442Z,0.35
2023-02-27T05:32:16.903Z,0.20
2023-02-27T05:38:25.572Z,0.30
2023-02-27T05:40:58.199Z,0.30
2023-02-27T05:43:32.752Z,0.35
2023-02-27T05:46:10.013Z,0.32
2023-02-27T05:48:44.416Z,0.30
2023-02-27T05:51:15.029Z,0.40
2023-02-27T05:53:48.909Z,0.50
2023-02-27T05:56:20.122Z,0.30
2023-02-27T05:59:05.275Z,0.40
2023-02-27T06:01:33.724Z,0.30
2023-02-27T06:04:00.868Z,0.22
2023-02-27T06:06:30.541Z,0.20
2023-02-27T06:08:57.707Z,0.40
2023-02-27T06:11:24.792Z,0.20
2023-02-27T06:13:51.840Z,0.65
2023-02-27T06:16:19.077Z,0.50
2023-02-27T06:18:46.151Z,0.55
2023-02-27T06:21:13.863Z,0.80
2023-02-27T06:23:40.923Z,0.57
2023-02-27T06:26:08.351Z,0.50
2023-02-27T06:28:35.383Z,0.30
2023-02-27T06:31:03.133Z,1.15
2023-02-27T06:33:30.231Z,0.70
2023-02-27T06:35:57.231Z,0.40
2023-02-27T06:38:24.435Z,0.60
2023-02-27T06:40:52.065Z,0.73
2023-02-27T06:43:19.352Z,0.40
2023-02-27T06:45:46.360Z,0.73
2023-02-27T06:48:14.875Z,0.82
2023-02-27T06:50:41.940Z,1.60
2023-02-27T06:53:08.975Z,0.80
2023-02-27T06:55:36.046Z,0.40
2023-02-27T06:58:03.263Z,0.60
2023-02-27T07:00:30.439Z,0.60
2023-02-27T07:02:57.424Z,0.82
2023-02-27T07:05:24.416Z,0.73
2023-02-27T07:07:51.605Z,0.70
2023-02-27T07:10:18.811Z,0.70
2023-02-27T07:12:45.808Z,0.57
2023-02-27T07:15:13.924Z,0.93
2023-02-27T07:17:40.977Z,0.98
2023-02-27T07:20:10.823Z,0.90
2023-02-27T07:22:39.726Z,0.80
2023-02-27T07:25:08.709Z,0.63
2023-02-27T07:27:35.819Z,0.70
2023-02-27T07:30:04.077Z,1.10
2023-02-27T07:32:31.171Z,0.75
2023-02-27T07:34:58.184Z,1.15
2023-02-27T07:37:27.661Z,1.10
2023-02-27T07:39:55.763Z,1.23
2023-02-27T07:42:22.818Z,1.00
2023-02-27T07:44:49.872Z,1.60
2023-02-27T07:47:17.881Z,1.35
2023-02-27T07:49:45.043Z,2.00
2023-02-27T07:52:12.282Z,2.42
2023-02-27T07:54:39.312Z,1.73
2023-02-27T07:57:06.747Z,2.13
2023-02-27T07:59:33.929Z,2.40
2023-02-27T08:02:01.190Z,1.77
2023-02-27T08:04:28.623Z,2.13
2023-02-27T08:06:55.722Z,2.25
2023-02-27T08:09:23.646Z,2.20
2023-02-27T08:11:50.827Z,1.45
2023-02-27T08:14:18.437Z,2.20
2023-02-27T08:16:45.621Z,1.40
2023-02-27T08:19:14.710Z,1.45
2023-02-27T08:21:43.037Z,1.95
2023-02-27T08:24:10.736Z,2.17
2023-02-27T08:26:37.883Z,1.80
2023-02-27T08:29:05.325Z,1.27
2023-02-27T08:31:32.509Z,1.80
2023-02-27T08:34:09.856Z,2.97
2023-02-27T08:36:39.470Z,2.00
2023-02-27T08:39:08.624Z,2.42
2023-02-27T08:41:36.061Z,2.55
2023-02-27T08:44:03.387Z,2.22
2023-02-27T08:46:30.688Z,2.75
2023-02-27T08:48:57.818Z,2.63
2023-02-27T08:51:25.360Z,2.60
2023-02-27T08:53:55.076Z,3.13
2023-02-27T08:56:22.704Z,2.83
2023-02-27T08:58:50.476Z,1.95
2023-02-27T09:01:18.917Z,2.55
2023-02-27T09:03:46.297Z,2.00
2023-02-27T09:06:13.692Z,1.90
2023-02-27T09:08:40.727Z,2.28
2023-02-27T09:11:07.815Z,2.92
2023-02-27T09:13:34.998Z,2.53
2023-02-27T09:16:02.134Z,3.40
2023-02-27T09:18:29.505Z,3.13
2023-02-27T09:20:56.848Z,2.15
2023-02-27T09:23:24.297Z,2.20
2023-02-27T09:25:51.445Z,3.03
2023-02-27T09:28:20.306Z,1.95
2023-02-27T09:30:47.731Z,1.75
2023-02-27T09:33:15.340Z,1.85
2023-02-27T09:35:42.958Z,1.30
2023-02-27T09:38:12.321Z,1.80
2023-02-27T09:40:42.239Z,1.02
2023-02-27T09:43:48.508Z,1.35
2023-02-27T09:46:23.499Z,0.80
2023-02-27T09:49:01.956Z,0.77
2023-02-27T09:51:29.859Z,0.90
2023-02-27T09:54:02.002Z,1.00
2023-02-27T09:56:35.677Z,0.88
2023-02-27T09:59:35.438Z,0.60
2023-02-27T10:02:44.204Z,0.60
2023-02-27T10:05:34.156Z,0.82
2023-02-27T10:08:30.670Z,0.77
2023-02-27T10:11:07.840Z,0.82
2023-02-27T10:13:44.296Z,1.15
2023-02-27T10:16:16.146Z,1.02
2023-02-27T10:19:07.045Z,0.80
2023-02-27T10:21:40.824Z,0.93
2023-02-27T10:24:27.710Z,0.88
2023-02-27T10:26:58.538Z,0.82
2023-02-27T10:29:39.881Z,0.52
2023-02-27T10:32:25.483Z,0.88
2023-02-27T10:34:58.858Z,0.40
2023-02-27T10:37:27.584Z,0.50
2023-02-27T10:40:04.750Z,0.45
2023-02-27T10:42:36.829Z,0.47
2023-02-27T10:45:06.043Z,0.73
2023-02-27T10:47:33.060Z,0.80
2023-02-27T10:50:00.550Z,0.85
2023-02-27T10:52:27.704Z,0.90
2023-02-27T10:54:54.752Z,0.70
2023-02-27T10:57:36.097Z,0.70
2023-02-27T11:00:09.767Z,1.02
2023-02-27T11:02:41.202Z,1.38
2023-02-27T11:05:25.498Z,0.68
2023-02-27T11:07:53.433Z,0.98
2023-02-27T11:10:29.051Z,0.30
2023-02-27T11:13:03.746Z,0.40
2023-02-27T11:15:34.622Z,0.63
2023-02-27T11:18:28.799Z,0.47
2023-02-27T11:21:31.454Z,1.00
2023-02-27T11:24:04.026Z,0.47
2023-02-27T11:26:38.678Z,0.57
2023-02-27T11:29:08.880Z,0.47
2023-02-27T11:31:37.871Z,0.70
2023-02-27T11:34:06.289Z,0.35
2023-02-27T11:36:46.707Z,0.50
2023-02-27T11:39:30.530Z,0.40
2023-02-27T11:42:12.403Z,0.20
2023-02-27T11:44:57.194Z,0.30
2023-02-27T11:50:17.777Z,0.50
2023-02-27T11:52:53.876Z,0.40
2023-02-27T11:55:27.980Z,0.40
2023-02-27T11:58:18.428Z,0.82
2023-02-27T12:01:28.719Z,1.00
2023-02-27T12:04:33.978Z,0.40
2023-02-27T12:07:26.569Z,0.30
2023-02-27T12:10:03.093Z,1.67
2023-02-27T12:12:55.023Z,0.60
2023-02-27T12:15:58.789Z,0.75
2023-02-27T12:18:43.535Z,0.20
2023-02-27T12:21:41.130Z,0.63
2023-02-27T12:24:19.890Z,0.90
2023-02-27T12:27:18.021Z,0.60
2023-02-27T12:29:59.335Z,0.50
2023-02-27T12:32:36.892Z,0.43
2023-02-27T12:35:17.803Z,1.30
2023-02-27T12:37:45.078Z,1.33
2023-02-27T12:40:17.412Z,0.55
2023-02-27T12:43:06.074Z,0.77
2023-02-27T12:45:48.458Z,0.60
2023-02-27T12:49:18.871Z,0.50
2023-02-27T12:52:34.042Z,1.25
2023-02-27T12:55:19.092Z,0.68
2023-02-27T12:58:01.478Z,0.70
2023-02-27T13:00:41.755Z,1.40
2023-02-27T13:03:34.632Z,0.60
2023-02-27T13:06:41.169Z,0.80
2023-02-27T13:09:17.517Z,1.30
2023-02-27T13:12:09.082Z,0.90
2023-02-27T13:14:57.195Z,0.60
2023-02-27T13:17:35.213Z,1.23
2023-02-27T13:20:19.064Z,0.93
2023-02-27T13:23:03.878Z,1.10
2023-02-27T13:25:36.518Z,0.43
2023-02-27T13:28:11.430Z,0.63
2023-02-27T13:30:43.008Z,0.60
2023-02-27T13:33:46.254Z,1.15
2023-02-27T13:36:24.469Z,0.68
2023-02-27T13:38:55.446Z,0.70
2023-02-27T13:41:28.923Z,0.60
2023-02-27T13:44:01.468Z,1.20
2023-02-27T13:46:33.250Z,1.45
2023-02-27T13:49:09.289Z,1.13
2023-02-27T13:51:39.920Z,0.60
2023-02-27T13:54:16.237Z,1.00
2023-02-27T13:56:59.001Z,0.70
2023-02-27T13:59:32.308Z,0.65
2023-02-27T14:02:07.098Z,1.05
2023-02-27T14:04:39.621Z,1.13
2023-02-27T14:07:12.901Z,1.40
2023-02-27T14:09:43.125Z,1.10
2023-02-27T14:12:45.883Z,0.90
2023-02-27T14:15:22.646Z,1.45
2023-02-27T14:18:12.380Z,0.68
2023-02-27T14:20:42.961Z,0.88
2023-02-27T14:23:16.086Z,0.60
2023-02-27T14:25:54.567Z,0.75
2023-02-27T14:28:51.848Z,0.80
2023-02-27T14:31:31.218Z,1.40
2023-02-27T14:34:05.389Z,1.05
2023-02-27T14:36:41.463Z,1.58
2023-02-27T14:39:30.657Z,0.90
2023-02-27T14:42:28.731Z,1.40
2023-02-27T14:44:59.260Z,0.93
2023-02-27T14:47:36.026Z,2.22
2023-02-27T14:50:08.071Z,1.45
2023-02-27T14:52:43.594Z,1.65
2023-02-27T14:55:31.480Z,1.20
2023-02-27T14:58:01.862Z,1.13
2023-02-27T15:00:43.492Z,0.73
2023-02-27T15:03:30.501Z,1.08
2023-02-27T15:06:02.299Z,1.33
2023-02-27T15:08:34.872Z,1.95
2023-02-27T15:11:03.112Z,1.08
2023-02-27T15:13:34.773Z,1.20
2023-02-27T15:16:32.754Z,1.00
2023-02-27T15:19:27.936Z,1.70
2023-02-27T15:22:04.107Z,1.42
2023-02-27T15:24:49.728Z,0.88
2023-02-27T15:27:24.299Z,1.50
2023-02-27T15:30:00.028Z,1.42
2023-02-27T15:32:34.083Z,1.27
2023-02-27T15:35:07.041Z,1.38
2023-02-27T15:37:34.998Z,2.15
2023-02-27T15:40:03.016Z,1.92
2023-02-27T15:42:36.475Z,1.90
2023-02-27T15:45:06.697Z,1.33
2023-02-27T15:47:35.599Z,1.70
2023-02-27T15:50:08.984Z,1.42
2023-02-27T15:52:43.302Z,1.67
2023-02-27T15:55:17.149Z,1.75
2023-02-27T15:58:00.784Z,2.33
2023-02-27T16:00:31.507Z,1.73
2023-02-27T16:02:59.764Z,1.67
2023-02-27T16:05:39.596Z,1.40
2023-02-27T16:08:07.174Z,1.67
2023-02-27T16:10:42.710Z,2.10
2023-02-27T16:13:40.012Z,1.63
2023-02-27T16:16:26.681Z,2.28
2023-02-27T16:18:59.839Z,1.65
2023-02-27T16:21:33.435Z,1.45
2023-02-27T16:24:20.919Z,1.77
2023-02-27T16:26:53.261Z,2.33
2023-02-27T16:29:31.677Z,2.17
2023-02-27T16:31:59.288Z,1.70
2023-02-27T16:34:47.615Z,3.03
2023-02-27T16:37:30.980Z,3.17
2023-02-27T16:39:58.440Z,4.10
2023-02-27T16:42:25.736Z,2.97
2023-02-27T16:44:53.246Z,3.38
2023-02-27T16:47:20.208Z,2.90
2023-02-27T16:49:49.417Z,2.70
2023-02-27T16:52:16.558Z,2.38
2023-02-27T16:54:43.897Z,2.25
2023-02-27T16:57:11.670Z,2.10
2023-02-27T16:59:40.535Z,2.53
2023-02-27T17:02:14.311Z,2.88
2023-02-27T17:04:48.022Z,4.05
2023-02-27T17:07:17.558Z,2.85
2023-02-27T17:09:46.605Z,2.63
2023-02-27T17:12:14.430Z,2.47
2023-02-27T17:14:41.539Z,3.25
2023-02-27T17:17:11.610Z,3.65
2023-02-27T17:19:39.520Z,3.63
2023-02-27T17:22:07.094Z,5.18
2023-02-27T17:24:34.273Z,4.65
2023-02-27T17:27:01.417Z,5.05
2023-02-27T17:29:28.887Z,4.63
2023-02-27T17:31:57.175Z,4.15
2023-02-27T17:34:24.423Z,3.47
2023-02-27T17:36:51.686Z,4.65
2023-02-27T17:39:18.932Z,4.88
2023-02-27T17:41:47.236Z,4.10
2023-02-27T17:44:14.953Z,2.97
2023-02-27T17:46:42.188Z,3.33
2023-02-27T17:49:09.695Z,3.10
2023-02-27T17:51:36.806Z,3.22
2023-02-27T17:54:06.124Z,3.20
2023-02-27T17:56:35.656Z,3.05
2023-02-27T17:59:05.518Z,3.63
2023-02-27T18:01:33.393Z,3.45
2023-02-27T18:04:00.813Z,3.63
2023-02-27T18:06:28.886Z,9.52
2023-02-27T18:08:56.620Z,6.90
2023-02-27T18:11:24.222Z,5.82
2023-02-27T18:13:51.426Z,4.05
2023-02-27T18:16:22.067Z,3.65
2023-02-27T18:18:50.079Z,2.92
2023-02-27T18:21:20.787Z,3.38
2023-02-27T18:23:50.116Z,4.38
2023-02-27T18:26:30.591Z,3.13
2023-02-27T18:29:06.128Z,3.70
2023-02-27T18:31:38.049Z,3.65
2023-02-27T18:34:06.688Z,3.40
2023-02-27T18:36:35.141Z,3.90
2023-02-27T18:39:05.103Z,4.43
2023-02-27T18:41:33.092Z,3.47
2023-02-27T18:44:01.050Z,3.97
2023-02-27T18:46:29.978Z,3.92
2023-02-27T18:48:57.391Z,4.35
2023-02-27T18:51:25.325Z,4.18
2023-02-27T18:53:53.256Z,4.00
2023-02-27T18:56:24.940Z,4.25
2023-02-27T18:58:53.440Z,4.45
2023-02-27T19:01:23.427Z,4.10
2023-02-27T19:03:51.268Z,4.30
2023-02-27T19:06:18.293Z,4.72
2023-02-27T19:08:46.517Z,5.70
2023-02-27T19:11:29.696Z,7.05
2023-02-27T19:13:57.732Z,6.38
2023-02-27T19:16:25.373Z,6.72
2023-02-27T19:18:56.333Z,6.70
2023-02-27T19:21:25.367Z,5.75
2023-02-27T19:23:54.445Z,6.00
2023-02-27T19:26:23.288Z,6.28
2023-02-27T19:28:53.705Z,5.93
2023-02-27T19:31:23.817Z,5.20
2023-02-27T19:33:51.579Z,5.30
2023-02-27T19:36:22.087Z,5.53
2023-02-27T19:38:49.728Z,4.97
2023-02-27T19:41:17.861Z,5.75
2023-02-27T19:43:46.646Z,5.75
2023-02-27T19:46:21.485Z,6.07
2023-02-27T19:48:48.752Z,5.75
2023-02-27T19:51:16.309Z,6.22
2023-02-27T19:53:46.110Z,6.13
2023-02-27T19:56:17.352Z,5.40
2023-02-27T19:58:44.941Z,6.05
2023-02-27T20:01:12.495Z,4.68
2023-02-27T20:03:43.870Z,7.10
2023-02-27T20:06:20.963Z,6.88
2023-02-27T20:08:49.491Z,7.53
2023-02-27T20:11:17.590Z,7.25
2023-02-27T20:13:45.118Z,6.88
2023-02-27T20:16:16.209Z,6.90
2023-02-27T20:18:44.440Z,7.35
2023-02-27T20:21:16.237Z,7.03
2023-02-27T20:23:46.134Z,6.60
2023-02-27T20:26:33.534Z,7.22
2023-02-27T20:29:07.093Z,8.00
2023-02-27T20:31:36.578Z,6.47
2023-02-27T20:34:06.193Z,7.07
2023-02-27T20:36:40.044Z,6.78
2023-02-27T20:39:08.418Z,6.95
2023-02-27T20:41:37.019Z,6.97
2023-02-27T20:44:05.525Z,5.40
2023-02-27T20:46:32.686Z,6.63
2023-02-27T20:49:02.831Z,7.65
2023-02-27T20:51:37.108Z,6.88
2023-02-27T20:56:38.259Z,8.05
2023-02-27T20:59:09.360Z,7.78
2023-02-27T21:01:38.475Z,8.20
2023-02-27T21:04:06.541Z,8.07
2023-02-27T21:06:34.902Z,8.25
2023-02-27T21:09:06.319Z,7.32
2023-02-27T21:11:34.244Z,7.35
2023-02-27T21:14:09.267Z,8.40
2023-02-27T21:16:37.342Z,6.63
2023-02-27T21:19:04.948Z,6.20
2023-02-27T21:21:34.451Z,5.85
2023-02-27T21:24:02.437Z,6.43
2023-02-27T21:26:40.495Z,5.10
2023-02-27T21:29:18.177Z,6.72
2023-02-27T21:31:49.120Z,5.07
2023-02-27T21:34:23.594Z,5.32
2023-02-27T21:36:52.577Z,5.97
2023-02-27T21:39:24.182Z,5.60
2023-02-27T21:41:52.023Z,5.57
2023-02-27T21:44:22.024Z,5.90
2023-02-27T21:46:49.170Z,5.30
2023-02-27T21:49:26.602Z,5.18
2023-02-27T21:51:54.933Z,5.20
2023-02-27T21:54:22.380Z,5.60
2023-02-27T21:56:50.254Z,8.57
2023-02-27T21:59:20.206Z,5.63
2023-02-27T22:01:48.846Z,5.28
2023-02-27T22:04:19.024Z,4.97
2023-02-27T22:06:48.600Z,4.80
2023-02-27T22:09:16.416Z,5.15
2023-02-27T22:11:44.390Z,5.15
2023-02-27T22:14:12.750Z,4.80
2023-02-27T22:16:40.681Z,4.80
2023-02-27T22:19:22.376Z,5.85
2023-02-27T22:21:49.839Z,5.00
2023-02-27T22:24:17.202Z,4.30
2023-02-27T22:26:45.749Z,4.93
2023-02-27T22:29:12.901Z,5.30
2023-02-27T22:31:40.827Z,4.60
2023-02-27T22:34:12.622Z,4.28
2023-02-27T22:36:41.798Z,4.18
2023-02-27T22:39:09.138Z,4.47
2023-02-27T22:41:40.037Z,4.00
2023-02-27T22:44:09.602Z,5.38
2023-02-27T22:46:40.012Z,4.70
2023-02-27T22:49:17.925Z,4.45
2023-02-27T22:51:46.710Z,4.32
2023-02-27T22:54:15.878Z,4.82
2023-02-27T22:56:43.946Z,5.28
2023-02-27T22:59:11.128Z,5.30
2023-02-27T23:01:38.494Z,4.63
2023-02-27T23:04:08.842Z,5.20
2023-02-27T23:06:39.718Z,5.40
2023-02-27T23:09:11.073Z,5.03
2023-02-27T23:11:38.534Z,7.38
2023-02-27T23:14:05.762Z,5.38
2023-02-27T23:16:33.246Z,4.88
2023-02-27T23:19:01.201Z,4.50
2023-02-27T23:21:34.999Z,5.63
2023-02-27T23:24:11.617Z,4.95
2023-02-27T23:26:43.522Z,6.93
2023-02-27T23:29:11.578Z,5.10
2023-02-27T23:31:40.140Z,5.15
2023-02-27T23:34:07.412Z,4.95
2023-02-27T23:36:36.110Z,5.38
2023-02-27T23:39:04.547Z,5.57
2023-02-27T23:41:33.173Z,5.07
2023-02-27T23:44:01.570Z,5.40
2023-02-27T23:46:30.684Z,5.93
2023-02-27T23:49:01.982Z,4.95
2023-02-27T23:51:30.650Z,5.35
2023-02-27T23:53:59.570Z,5.70
2023-02-27T23:56:30.588Z,4.97
2023-02-27T23:59:05.708Z,4.93
